createdAt,value
2022-12-27T00:00:05.614Z,97329.25
2022-12-27T00:01:11.442Z,97328.28
2022-12-27T00:02:13.468Z,97332.47
2022-12-27T00:03:15.400Z,97331.84
2022-12-27T00:04:17.216Z,97336.56
2022-12-27T00:05:20.177Z,97342.91
2022-12-27T00:06:23.057Z,97343.72
2022-12-27T00:07:24.969Z,97327.34
2022-12-27T00:08:26.778Z,97329.31
2022-12-27T00:09:28.694Z,97327.50
2022-12-27T00:10:30.512Z,97334.50
2022-12-27T00:11:32.654Z,97327.50
2022-12-27T00:12:34.480Z,97327.16
2022-12-27T00:13:36.373Z,97331.25
2022-12-27T00:14:38.177Z,97324.31
2022-12-27T00:15:41.351Z,97327.44
2022-12-27T00:16:43.241Z,97335.06
2022-12-27T00:17:45.139Z,97344.47
2022-12-27T00:18:47.600Z,97342.84
2022-12-27T00:19:49.489Z,97343.66
2022-12-27T00:20:56.714Z,97348.69
2022-12-27T00:21:58.590Z,97347.53
2022-12-27T00:23:01.777Z,97343.78
2022-12-27T00:24:03.813Z,97352.19
2022-12-27T00:25:05.890Z,97353.03
2022-12-27T00:26:18.285Z,97357.75
2022-12-27T00:27:20.254Z,97354.53
2022-12-27T00:28:21.997Z,97353.69
2022-12-27T00:29:23.808Z,97349.31
2022-12-27T00:30:25.596Z,97361.47
2022-12-27T00:31:29.262Z,97372.69
2022-12-27T00:32:31.236Z,97362.31
2022-12-27T00:33:34.699Z,97362.47
2022-12-27T00:34:36.546Z,97362.31
2022-12-27T00:35:41.441Z,97349.16
2022-12-27T00:36:43.391Z,97362.78
2022-12-27T00:37:45.274Z,97369.75
2022-12-27T00:38:47.211Z,97369.75
2022-12-27T00:39:49.028Z,97373.97
2022-12-27T00:40:50.829Z,97368.78
2022-12-27T00:41:54.335Z,97376.91
2022-12-27T00:42:56.072Z,97371.69
2022-12-27T00:43:57.832Z,97376.72
2022-12-27T00:44:59.656Z,97385.31
2022-12-27T00:46:01.758Z,97384.34
2022-12-27T00:47:04.269Z,97379.00
2022-12-27T00:48:06.268Z,97379.63
2022-12-27T00:49:08.049Z,97383.19
2022-12-27T00:50:09.956Z,97389.19
2022-12-27T00:51:13.847Z,97404.78
2022-12-27T00:52:15.910Z,97406.72
2022-12-27T00:53:17.756Z,97414.53
2022-12-27T00:54:19.575Z,97417.13
2022-12-27T00:55:21.493Z,97424.75
2022-12-27T00:56:24.739Z,97419.91
2022-12-27T00:57:26.537Z,97404.66
2022-12-27T00:58:28.414Z,97408.22
2022-12-27T00:59:30.146Z,97412.59
2022-12-27T01:00:32.001Z,97420.28
2022-12-27T01:01:35.754Z,97421.75
2022-12-27T01:02:37.849Z,97424.22
2022-12-27T01:03:39.929Z,97432.53
2022-12-27T01:04:41.755Z,97421.50
2022-12-27T01:05:43.620Z,97433.00
2022-12-27T01:06:45.431Z,97451.50
2022-12-27T01:07:47.305Z,97450.69
2022-12-27T01:08:49.414Z,97457.66
2022-12-27T01:09:51.222Z,97444.22
2022-12-27T01:10:53.038Z,97455.91
2022-12-27T01:11:54.849Z,97464.34
2022-12-27T01:12:57.291Z,97466.63
2022-12-27T01:14:00.499Z,97462.88
2022-12-27T01:15:02.606Z,97448.75
2022-12-27T01:16:30.628Z,97460.63
2022-12-27T01:17:32.457Z,97458.66
2022-12-27T01:18:34.390Z,97448.75
2022-12-27T01:19:36.933Z,97452.63
2022-12-27T01:20:38.960Z,97454.88
2022-12-27T01:21:40.705Z,97452.44
2022-12-27T01:22:42.475Z,97451.50
2022-12-27T01:23:44.398Z,97450.34
2022-12-27T01:24:46.168Z,97430.38
2022-12-27T01:25:47.963Z,97439.78
2022-12-27T01:26:49.782Z,97438.00
2022-12-27T01:27:51.561Z,97439.94
2022-12-27T01:28:54.297Z,97445.31
2022-12-27T01:29:56.121Z,97448.72
2022-12-27T01:30:58.398Z,97443.34
2022-12-27T01:32:00.236Z,97452.78
2022-12-27T01:33:02.130Z,97461.88
2022-12-27T01:34:04.311Z,97468.66
2022-12-27T01:35:06.203Z,97466.72
2022-12-27T01:36:18.680Z,97463.00
2022-12-27T01:37:20.500Z,97461.19
2022-12-27T01:38:22.259Z,97470.44
2022-12-27T01:39:25.373Z,97471.06
2022-12-27T01:40:27.191Z,97463.13
2022-12-27T01:42:07.694Z,97467.97
2022-12-27T01:43:16.998Z,97474.16
2022-12-27T01:44:37.458Z,97471.72
2022-12-27T01:45:39.287Z,97466.22
2022-12-27T01:46:41.721Z,97467.00
2022-12-27T01:47:43.496Z,97466.22
2022-12-27T01:48:46.055Z,97462.63
2022-12-27T01:49:56.177Z,97476.41
2022-12-27T01:51:01.384Z,97487.94
2022-12-27T01:52:03.251Z,97487.94
2022-12-27T01:53:05.068Z,97494.28
2022-12-27T01:54:06.980Z,97487.44
2022-12-27T01:55:19.535Z,97491.69
2022-12-27T01:56:26.679Z,97487.28
2022-12-27T01:57:29.078Z,97484.53
2022-12-27T01:58:40.554Z,97491.53
2022-12-27T01:59:42.645Z,97491.53
2022-12-27T02:00:45.647Z,97499.97
2022-12-27T02:01:48.136Z,97492.81
2022-12-27T02:02:51.134Z,97480.47
2022-12-27T02:03:56.033Z,97478.69
2022-12-27T02:04:58.018Z,97480.78
2022-12-27T02:06:01.013Z,97476.91
2022-12-27T02:07:02.797Z,97492.19
2022-12-27T02:08:13.463Z,97489.91
2022-12-27T02:09:35.534Z,97507.13
2022-12-27T02:10:37.586Z,97505.34
2022-12-27T02:11:51.469Z,97502.75
2022-12-27T02:12:53.356Z,97504.84
2022-12-27T02:13:55.163Z,97505.00
2022-12-27T02:14:56.969Z,97506.81
2022-12-27T02:15:58.810Z,97510.69
2022-12-27T02:17:04.035Z,97506.66
2022-12-27T02:18:05.889Z,97506.81
2022-12-27T02:19:17.995Z,97507.47
2022-12-27T02:20:21.862Z,97509.56
2022-12-27T02:21:53.021Z,97509.25
2022-12-27T02:23:25.593Z,97514.72
2022-12-27T02:24:30.364Z,97518.81
2022-12-27T02:25:59.768Z,97512.63
2022-12-27T02:27:05.409Z,97513.41
2022-12-27T02:28:09.987Z,97515.84
2022-12-27T02:29:14.786Z,97522.69
2022-12-27T02:30:16.729Z,97518.28
2022-12-27T02:31:21.479Z,97524.28
2022-12-27T02:32:26.015Z,97521.03
2022-12-27T02:33:30.480Z,97515.84
2022-12-27T02:34:38.538Z,97516.66
2022-12-27T02:35:43.430Z,97519.09
2022-12-27T02:36:46.729Z,97519.75
2022-12-27T02:37:52.220Z,97535.69
2022-12-27T02:38:56.449Z,97525.63
2022-12-27T02:40:20.107Z,97521.06
2022-12-27T02:41:40.601Z,97519.13
2022-12-27T02:43:00.796Z,97525.94
2022-12-27T02:44:20.916Z,97528.19
2022-12-27T02:45:43.394Z,97523.00
2022-12-27T02:47:04.507Z,97524.94
2022-12-27T02:48:29.359Z,97541.16
2022-12-27T02:49:57.064Z,97547.00
2022-12-27T02:51:42.057Z,97548.66
2022-12-27T02:53:05.458Z,97555.44
2022-12-27T02:54:15.729Z,97552.84
2022-12-27T02:55:36.111Z,97550.41
2022-12-27T02:57:08.688Z,97560.78
2022-12-27T02:58:25.695Z,97559.19
2022-12-27T02:59:30.551Z,97558.19
2022-12-27T03:00:56.054Z,97550.59
2022-12-27T03:02:19.437Z,97556.09
2022-12-27T03:03:24.659Z,97555.63
2022-12-27T03:04:29.154Z,97556.75
2022-12-27T03:05:41.351Z,97570.72
2022-12-27T03:06:43.221Z,97563.09
2022-12-27T03:08:03.541Z,97569.44
2022-12-27T03:09:42.873Z,97570.56
2022-12-27T03:11:02.962Z,97578.19
2022-12-27T03:12:28.661Z,97571.69
2022-12-27T03:13:53.695Z,97557.41
2022-12-27T03:15:17.313Z,97566.66
2022-12-27T03:16:40.461Z,97569.09
2022-12-27T03:17:46.514Z,97567.28
2022-12-27T03:19:02.441Z,97582.06
2022-12-27T03:20:26.565Z,97595.69
2022-12-27T03:21:51.877Z,97586.94
2022-12-27T03:23:13.963Z,97586.94
2022-12-27T03:24:37.160Z,97586.28
2022-12-27T03:25:40.573Z,97588.91
2022-12-27T03:26:48.873Z,97584.81
2022-12-27T03:28:12.511Z,97587.41
2022-12-27T03:29:35.334Z,97592.59
2022-12-27T03:30:56.638Z,97603.63
2022-12-27T03:32:18.507Z,97604.28
2022-12-27T03:33:20.471Z,97599.94
2022-12-27T03:34:38.619Z,97603.16
2022-12-27T03:35:40.382Z,97590.19
2022-12-27T03:37:01.225Z,97599.72
2022-12-27T03:38:04.103Z,97599.94
2022-12-27T03:39:05.917Z,97613.06
2022-12-27T03:40:19.159Z,97621.81
2022-12-27T03:41:49.736Z,97621.16
2022-12-27T03:43:11.514Z,97620.69
2022-12-27T03:44:25.525Z,97617.47
2022-12-27T03:45:50.027Z,97633.03
2022-12-27T03:47:14.916Z,97643.41
2022-12-27T03:48:20.373Z,97646.00
2022-12-27T03:49:33.327Z,97655.91
2022-12-27T03:50:40.672Z,97654.44
2022-12-27T03:51:45.175Z,97647.63
2022-12-27T03:53:08.445Z,97636.75
2022-12-27T03:54:17.250Z,97648.41
2022-12-27T03:55:19.535Z,97662.19
2022-12-27T03:56:21.585Z,97673.41
2022-12-27T03:57:24.997Z,97673.56
2022-12-27T03:58:26.764Z,97672.56
2022-12-27T03:59:29.209Z,97657.19
2022-12-27T04:00:31.259Z,97655.41
2022-12-27T04:01:33.078Z,97662.84
2022-12-27T04:02:35.048Z,97673.22
2022-12-27T04:03:37.038Z,97674.06
2022-12-27T04:04:39.350Z,97674.22
2022-12-27T04:05:41.154Z,97663.19
2022-12-27T04:06:42.973Z,97658.78
2022-12-27T04:08:03.116Z,97657.00
2022-12-27T04:09:23.136Z,97657.97
2022-12-27T04:10:43.457Z,97659.28
2022-12-27T04:12:03.614Z,97651.50
2022-12-27T04:13:23.656Z,97656.69
2022-12-27T04:14:43.777Z,97665.75
2022-12-27T04:16:03.953Z,97671.06
2022-12-27T04:17:24.011Z,97686.00
2022-12-27T04:18:43.994Z,97681.47
2022-12-27T04:20:04.260Z,97672.38
2022-12-27T04:21:24.556Z,97672.88
2022-12-27T04:22:44.711Z,97678.72
2022-12-27T04:24:04.952Z,97678.72
2022-12-27T04:25:25.544Z,97683.41
2022-12-27T04:26:45.783Z,97700.91
2022-12-27T04:28:06.301Z,97689.75
2022-12-27T04:29:26.360Z,97692.63
2022-12-27T04:30:46.605Z,97700.41
2022-12-27T04:32:06.875Z,97686.31
2022-12-27T04:33:27.061Z,97686.66
2022-12-27T04:34:43.964Z,97704.00
2022-12-27T04:35:45.925Z,97702.69
2022-12-27T04:36:47.760Z,97701.84
2022-12-27T04:37:49.641Z,97696.84
2022-12-27T04:38:51.516Z,97703.13
2022-12-27T04:40:11.667Z,97705.91
2022-12-27T04:41:31.870Z,97709.31
2022-12-27T04:42:52.501Z,97706.88
2022-12-27T04:44:12.577Z,97704.28
2022-12-27T04:45:32.580Z,97691.31
2022-12-27T04:46:53.162Z,97701.03
2022-12-27T04:48:13.365Z,97710.88
2022-12-27T04:49:41.773Z,97703.44
2022-12-27T04:51:01.921Z,97714.00
2022-12-27T04:52:24.614Z,97718.88
2022-12-27T04:53:44.846Z,97720.19
2022-12-27T04:54:58.409Z,97727.78
2022-12-27T04:56:00.366Z,97724.53
2022-12-27T04:57:02.180Z,97717.75
2022-12-27T04:58:03.962Z,97721.16
2022-12-27T04:59:24.362Z,97718.41
2022-12-27T05:00:47.523Z,97713.50
2022-12-27T05:02:04.547Z,97723.72
2022-12-27T05:03:08.556Z,97723.06
2022-12-27T05:04:10.591Z,97728.25
2022-12-27T05:05:12.533Z,97717.91
2022-12-27T05:06:14.688Z,97717.91
2022-12-27T05:07:35.737Z,97726.31
2022-12-27T05:08:56.010Z,97726.47
2022-12-27T05:10:17.641Z,97733.59
2022-12-27T05:11:37.776Z,97740.06
2022-12-27T05:12:58.017Z,97745.06
2022-12-27T05:14:00.043Z,97747.16
2022-12-27T05:15:01.936Z,97746.66
2022-12-27T05:16:03.927Z,97748.91
2022-12-27T05:17:05.769Z,97763.81
2022-12-27T05:18:07.611Z,97765.88
2022-12-27T05:19:10.516Z,97761.03
2022-12-27T05:20:12.420Z,97768.28
2022-12-27T05:21:14.306Z,97775.25
2022-12-27T05:22:34.717Z,97771.50
2022-12-27T05:24:00.239Z,97769.56
2022-12-27T05:25:25.628Z,97766.66
2022-12-27T05:26:28.962Z,97760.00
2022-12-27T05:27:30.836Z,97769.72
2022-12-27T05:28:32.683Z,97785.13
2022-12-27T05:29:36.354Z,97787.69
2022-12-27T05:30:40.709Z,97790.28
2022-12-27T05:31:42.565Z,97795.47
2022-12-27T05:32:44.351Z,97801.47
2022-12-27T05:33:46.229Z,97801.47
2022-12-27T05:34:48.003Z,97807.31
2022-12-27T05:35:49.803Z,97806.34
2022-12-27T05:36:51.665Z,97807.97
2022-12-27T05:37:55.175Z,97815.91
2022-12-27T05:38:57.982Z,97817.81
2022-12-27T05:39:59.794Z,97820.72
2022-12-27T05:41:02.114Z,97824.28
2022-12-27T05:42:04.076Z,97827.69
2022-12-27T05:43:05.962Z,97824.28
2022-12-27T05:44:07.916Z,97821.34
2022-12-27T05:45:09.702Z,97825.84
2022-12-27T05:46:13.516Z,97818.75
2022-12-27T05:47:15.374Z,97825.03
2022-12-27T05:48:17.192Z,97827.41
2022-12-27T05:49:19.034Z,97831.28
2022-12-27T05:50:21.302Z,97837.91
2022-12-27T05:51:23.178Z,97835.34
2022-12-27T05:52:25.119Z,97837.72
2022-12-27T05:53:26.998Z,97846.16
2022-12-27T05:54:28.853Z,97846.97
2022-12-27T05:55:30.780Z,97850.81
2022-12-27T05:56:35.629Z,97849.06
2022-12-27T05:57:37.479Z,97844.81
2022-12-27T05:58:39.272Z,97847.28
2022-12-27T05:59:41.098Z,97853.56
2022-12-27T06:00:43.782Z,97855.13
2022-12-27T06:01:45.688Z,97857.81
2022-12-27T06:02:48.026Z,97857.72
2022-12-27T06:03:49.918Z,97859.34
2022-12-27T06:04:51.799Z,97865.03
2022-12-27T06:05:59.643Z,97861.34
2022-12-27T06:07:01.507Z,97855.63
2022-12-27T06:08:03.373Z,97857.72
2022-12-27T06:09:05.175Z,97859.59
2022-12-27T06:10:07.899Z,97866.44
2022-12-27T06:11:15.732Z,97864.13
2022-12-27T06:12:17.633Z,97863.72
2022-12-27T06:13:19.443Z,97863.06
2022-12-27T06:14:21.304Z,97858.72
2022-12-27T06:15:23.135Z,97862.41
2022-12-27T06:16:25.894Z,97866.09
2022-12-27T06:17:27.743Z,97876.31
2022-12-27T06:18:30.714Z,97864.84
2022-12-27T06:19:32.519Z,97872.75
2022-12-27T06:20:34.422Z,97871.66
2022-12-27T06:21:36.333Z,97882.53
2022-12-27T06:22:38.171Z,97879.44
2022-12-27T06:23:40.858Z,97877.94
2022-12-27T06:24:42.765Z,97874.69
2022-12-27T06:25:44.562Z,97877.28
2022-12-27T06:26:46.831Z,97875.53
2022-12-27T06:27:48.675Z,97878.78
2022-12-27T06:28:51.157Z,97884.63
2022-12-27T06:29:53.015Z,97893.88
2022-12-27T06:30:54.923Z,97886.75
2022-12-27T06:31:57.910Z,97881.59
2022-12-27T06:32:59.786Z,97884.97
2022-12-27T06:34:01.584Z,97893.56
2022-12-27T06:35:03.468Z,97895.47
2022-12-27T06:36:09.302Z,97898.81
2022-12-27T06:37:11.488Z,97892.16
2022-12-27T06:38:13.370Z,97908.50
2022-12-27T06:39:15.185Z,97907.00
2022-12-27T06:40:20.508Z,97909.59
2022-12-27T06:41:22.373Z,97919.47
2022-12-27T06:42:24.279Z,97916.03
2022-12-27T06:43:26.113Z,97903.94
2022-12-27T06:44:28.037Z,97900.22
2022-12-27T06:45:30.026Z,97911.53
2022-12-27T06:46:31.920Z,97913.97
2022-12-27T06:47:33.807Z,97908.66
2022-12-27T06:48:36.017Z,97906.88
2022-12-27T06:49:37.878Z,97909.59
2022-12-27T06:50:39.670Z,97916.69
2022-12-27T06:51:41.696Z,97924.09
2022-12-27T06:52:43.585Z,97926.31
2022-12-27T06:53:45.473Z,97932.47
2022-12-27T06:54:47.307Z,97932.59
2022-12-27T06:55:49.337Z,97929.06
2022-12-27T06:56:51.135Z,97939.09
2022-12-27T06:57:53.086Z,97935.03
2022-12-27T06:58:55.018Z,97934.91
2022-12-27T06:59:56.866Z,97935.56
2022-12-27T07:00:58.777Z,97933.13
2022-12-27T07:02:00.733Z,97928.75
2022-12-27T07:03:03.835Z,97928.91
2022-12-27T07:04:05.727Z,97937.50
2022-12-27T07:05:07.919Z,97944.44
2022-12-27T07:06:11.848Z,97940.22
2022-12-27T07:07:15.848Z,97946.34
2022-12-27T07:08:17.950Z,97961.06
2022-12-27T07:09:19.924Z,97955.66
2022-12-27T07:10:21.725Z,97953.06
2022-12-27T07:11:24.308Z,97956.47
2022-12-27T07:12:26.170Z,97960.41
2022-12-27T07:13:28.108Z,97955.91
2022-12-27T07:14:30.064Z,97948.13
2022-12-27T07:15:31.862Z,97966.13
2022-12-27T07:16:33.820Z,97958.63
2022-12-27T07:17:36.380Z,97970.75
2022-12-27T07:18:38.315Z,97980.31
2022-12-27T07:19:40.615Z,97981.09
2022-12-27T07:20:42.491Z,97979.91
2022-12-27T07:21:44.337Z,97978.28
2022-12-27T07:22:46.237Z,97975.41
2022-12-27T07:23:48.108Z,97970.53
2022-12-27T07:24:49.995Z,97973.09
2022-12-27T07:25:51.839Z,97986.19
2022-12-27T07:26:54.036Z,97988.25
2022-12-27T07:27:55.927Z,97984.97
2022-12-27T07:28:59.194Z,97981.44
2022-12-27T07:30:01.069Z,97987.28
2022-12-27T07:31:08.707Z,97996.53
2022-12-27T07:32:10.579Z,97998.31
2022-12-27T07:33:12.818Z,97995.06
2022-12-27T07:34:14.788Z,97999.94
2022-12-27T07:35:16.682Z,98009.06
2022-12-27T07:36:20.556Z,98005.34
2022-12-27T07:37:22.470Z,97999.09
2022-12-27T07:38:24.257Z,98000.56
2022-12-27T07:39:26.176Z,98004.81
2022-12-27T07:40:28.080Z,98009.16
2022-12-27T07:41:29.999Z,98008.34
2022-12-27T07:42:31.832Z,98010.78
2022-12-27T07:43:34.755Z,98018.03
2022-12-27T07:44:36.843Z,98014.09
2022-12-27T07:45:38.950Z,98007.44
2022-12-27T07:46:40.752Z,98009.34
2022-12-27T07:47:42.585Z,98010.28
2022-12-27T07:48:44.792Z,97999.94
2022-12-27T07:49:46.711Z,97999.94
2022-12-27T07:50:56.170Z,98008.38
2022-12-27T07:51:57.989Z,98007.69
2022-12-27T07:52:59.809Z,98013.00
2022-12-27T07:54:01.723Z,98008.69
2022-12-27T07:55:03.654Z,98002.53
2022-12-27T07:56:07.103Z,98016.94
2022-12-27T07:57:09.041Z,98022.44
2022-12-27T07:58:10.919Z,98030.31
2022-12-27T07:59:13.819Z,98033.72
2022-12-27T08:00:15.862Z,98033.34
2022-12-27T08:01:18.871Z,98029.94
2022-12-27T08:02:20.936Z,98023.13
2022-12-27T08:03:22.959Z,98028.16
2022-12-27T08:04:24.812Z,98038.38
2022-12-27T08:05:28.002Z,98041.66
2022-12-27T08:06:34.609Z,98039.06
2022-12-27T08:07:36.983Z,98044.06
2022-12-27T08:08:40.174Z,98037.81
2022-12-27T08:09:44.179Z,98036.97
2022-12-27T08:10:46.061Z,98044.91
2022-12-27T08:11:47.903Z,98031.97
2022-12-27T08:12:49.740Z,98032.09
2022-12-27T08:13:51.583Z,98040.97
2022-12-27T08:14:53.524Z,98036.88
2022-12-27T08:15:55.578Z,98049.31
2022-12-27T08:16:59.577Z,98050.53
2022-12-27T08:18:01.414Z,98041.81
2022-12-27T08:19:08.150Z,98039.09
2022-12-27T08:20:14.848Z,98032.69
2022-12-27T08:21:17.130Z,98041.44
2022-12-27T08:22:19.876Z,98059.53
2022-12-27T08:23:21.774Z,98061.97
2022-12-27T08:24:24.751Z,98062.81
2022-12-27T08:25:26.854Z,98059.91
2022-12-27T08:26:28.696Z,98061.03
2022-12-27T08:27:30.554Z,98062.13
2022-12-27T08:28:33.340Z,98071.50
2022-12-27T08:29:35.150Z,98054.75
2022-12-27T08:30:38.526Z,98068.66
2022-12-27T08:31:40.368Z,98059.69
2022-12-27T08:32:42.266Z,98066.06
2022-12-27T08:33:44.124Z,98058.16
2022-12-27T08:34:45.991Z,98057.88
2022-12-27T08:35:53.286Z,98066.44
2022-12-27T08:36:56.742Z,98066.44
2022-12-27T08:38:01.238Z,98056.09
2022-12-27T08:39:03.647Z,98055.66
2022-12-27T08:40:05.949Z,98047.78
2022-12-27T08:41:08.065Z,98057.19
2022-12-27T08:42:14.213Z,98061.13
2022-12-27T08:43:16.372Z,98065.31
2022-12-27T08:44:18.272Z,98064.38
2022-12-27T08:45:20.237Z,98070.22
2022-12-27T08:46:22.171Z,98066.97
2022-12-27T08:47:24.293Z,98073.22
2022-12-27T08:48:26.211Z,98078.41
2022-12-27T08:49:28.135Z,98087.00
2022-12-27T08:50:30.465Z,98078.28
2022-12-27T08:51:40.403Z,98068.59
2022-12-27T08:52:43.396Z,98075.13
2022-12-27T08:53:45.275Z,98078.25
2022-12-27T08:54:47.138Z,98081.38
2022-12-27T08:55:48.954Z,98074.41
2022-12-27T08:56:50.842Z,98092.66
2022-12-27T08:57:56.547Z,98088.72
2022-12-27T08:58:58.324Z,98099.09
2022-12-27T09:00:00.201Z,98089.13
2022-12-27T09:01:06.063Z,98093.09
2022-12-27T09:02:10.074Z,98098.94
2022-12-27T09:03:12.011Z,98091.84
2022-12-27T09:04:13.841Z,98094.13
2022-12-27T09:05:15.995Z,98086.22
2022-12-27T09:06:19.428Z,98088.69
2022-12-27T09:07:21.283Z,98090.16
2022-12-27T09:08:23.133Z,98092.63
2022-12-27T09:09:24.946Z,98090.84
2022-12-27T09:10:26.866Z,98087.31
2022-12-27T09:11:30.690Z,98092.63
2022-12-27T09:12:33.873Z,98083.38
2022-12-27T09:13:35.674Z,98089.78
2022-12-27T09:14:37.566Z,98095.78
2022-12-27T09:15:39.865Z,98093.88
2022-12-27T09:16:41.867Z,98096.69
2022-12-27T09:17:44.020Z,98089.72
2022-12-27T09:18:48.466Z,98090.56
2022-12-27T09:19:50.322Z,98085.22
2022-12-27T09:20:52.188Z,98091.38
2022-12-27T09:21:54.128Z,98089.31
2022-12-27T09:22:55.944Z,98095.16
2022-12-27T09:23:58.387Z,98092.94
2022-12-27T09:25:00.404Z,98091.03
2022-12-27T09:26:09.414Z,98097.56
2022-12-27T09:27:11.352Z,98094.69
2022-12-27T09:28:13.846Z,98087.59
2022-12-27T09:29:15.689Z,98095.06
2022-12-27T09:30:17.507Z,98093.31
2022-12-27T09:31:20.266Z,98093.13
2022-12-27T09:32:23.077Z,98090.41
2022-12-27T09:33:24.983Z,98086.03
2022-12-27T09:34:27.090Z,98089.47
2022-12-27T09:35:29.532Z,98091.22
2022-12-27T09:36:31.935Z,98096.41
2022-12-27T09:37:33.847Z,98094.78
2022-12-27T09:38:36.218Z,98099.66
2022-12-27T09:39:38.055Z,98100.19
2022-12-27T09:40:39.897Z,98088.22
2022-12-27T09:43:27.666Z,98079.19
2022-12-27T09:44:34.194Z,98090.22
2022-12-27T09:45:40.782Z,98087.91
2022-12-27T09:46:45.837Z,98092.81
2022-12-27T09:47:47.802Z,98084.72
2022-12-27T09:48:50.304Z,98085.53
2022-12-27T09:50:12.288Z,98081.03
2022-12-27T09:51:23.768Z,98081.28
2022-12-27T09:52:32.606Z,98088.88
2022-12-27T09:53:37.419Z,98081.34
2022-12-27T09:54:51.040Z,98083.63
2022-12-27T09:55:58.189Z,98079.56
2022-12-27T09:57:19.527Z,98079.03
2022-12-27T09:58:25.288Z,98080.16
2022-12-27T09:59:27.104Z,98078.50
2022-12-27T10:00:35.159Z,98079.19
2022-12-27T10:01:41.515Z,98075.66
2022-12-27T10:02:44.779Z,98078.50
2022-12-27T10:03:46.837Z,98074.97
2022-12-27T10:06:29.763Z,98082.47
2022-12-27T10:07:54.675Z,98077.44
2022-12-27T10:09:19.233Z,98079.03
2022-12-27T10:10:28.193Z,98079.28
2022-12-27T10:11:39.163Z,98070.84
2022-12-27T10:12:47.254Z,98076.16
2022-12-27T10:13:54.813Z,98074.09
2022-12-27T10:15:05.917Z,98067.94
2022-12-27T10:16:30.218Z,98066.81
2022-12-27T10:17:43.948Z,98069.94
2022-12-27T10:18:59.651Z,98073.06
2022-12-27T10:20:09.624Z,98073.88
2022-12-27T10:21:25.028Z,98078.09
2022-12-27T10:22:26.870Z,98069.28
2022-12-27T10:23:30.540Z,98079.13
2022-12-27T10:24:40.580Z,98073.94
2022-12-27T10:25:45.495Z,98073.50
2022-12-27T10:26:47.385Z,98076.78
2022-12-27T10:27:51.231Z,98072.91
2022-12-27T10:29:03.912Z,98075.50
2022-12-27T10:30:16.564Z,98068.81
2022-12-27T10:31:19.820Z,98071.94
2022-12-27T10:32:21.761Z,98067.41
2022-12-27T10:33:27.857Z,98067.41
2022-12-27T10:34:29.765Z,98064.81
2022-12-27T10:35:31.634Z,98065.13
2022-12-27T10:36:34.224Z,98061.88
2022-12-27T10:37:36.145Z,98065.13
2022-12-27T10:38:38.023Z,98060.63
2022-12-27T10:39:40.122Z,98069.88
2022-12-27T10:40:50.894Z,98073.41
2022-12-27T10:42:01.904Z,98077.50
2022-12-27T10:43:06.177Z,98074.59
2022-12-27T10:44:12.007Z,98071.34
2022-12-27T10:45:26.788Z,98070.41
2022-12-27T10:46:33.388Z,98062.91
2022-12-27T10:47:35.706Z,98058.38
2022-12-27T10:49:19.510Z,98060.03
2022-12-27T10:50:08.896Z,98060.03
2022-12-27T10:51:12.263Z,98058.38
2022-12-27T10:52:18.699Z,98061.13
2022-12-27T10:53:34.659Z,98061.94
2022-12-27T10:54:49.233Z,98068.47
2022-12-27T10:55:51.029Z,98068.47
2022-12-27T10:56:53.522Z,98062.44
2022-12-27T10:57:55.371Z,98059.84
2022-12-27T10:59:13.888Z,98065.88
2022-12-27T11:00:16.745Z,98062.09
2022-12-27T11:01:32.749Z,98062.91
2022-12-27T11:02:34.837Z,98063.03
2022-12-27T11:03:36.954Z,98057.56
2022-12-27T11:04:55.947Z,98066.00
2022-12-27T11:06:05.120Z,98058.91
2022-12-27T11:07:19.121Z,98054.16
2022-12-27T11:08:21.444Z,98051.06
2022-12-27T11:09:32.350Z,98055.56
2022-12-27T11:10:34.203Z,98061.88
2022-12-27T11:11:36.028Z,98061.03
2022-12-27T11:12:39.206Z,98056.69
2022-12-27T11:13:40.992Z,98054.09
2022-12-27T11:15:09.171Z,98041.13
2022-12-27T11:16:19.292Z,98054.38
2022-12-27T11:17:23.929Z,98049.19
2022-12-27T11:18:25.842Z,98047.41
2022-12-27T11:19:28.102Z,98045.13
2022-12-27T11:20:34.906Z,98045.78
2022-12-27T11:21:38.871Z,98050.00
2022-12-27T11:22:46.077Z,98041.56
2022-12-27T11:23:49.832Z,98044.81
2022-12-27T11:24:53.532Z,98027.31
2022-12-27T11:26:03.024Z,98022.66
2022-12-27T11:27:05.287Z,98028.66
2022-12-27T11:28:19.600Z,98024.00
2022-12-27T11:29:23.474Z,98021.78
2022-12-27T11:30:25.507Z,98016.59
2022-12-27T11:31:31.228Z,98014.94
2022-12-27T11:32:33.870Z,98013.00
2022-12-27T11:33:49.607Z,98010.41
2022-12-27T11:34:54.038Z,98012.34
2022-12-27T11:35:57.826Z,98010.88
2022-12-27T11:37:14.654Z,98006.34
2022-12-27T11:38:24.339Z,98007.03
2022-12-27T11:39:39.720Z,97994.84
2022-12-27T11:40:41.668Z,97991.97
2022-12-27T11:41:47.674Z,98003.31
2022-12-27T11:42:53.364Z,98001.03
2022-12-27T11:43:58.755Z,97997.91
2022-12-27T11:45:20.080Z,98002.28
2022-12-27T11:46:28.300Z,97991.75
2022-12-27T11:47:50.392Z,97989.31
2022-12-27T11:48:56.309Z,97989.41
2022-12-27T11:50:19.333Z,97989.41
2022-12-27T11:51:44.597Z,97983.91
2022-12-27T11:52:58.365Z,97993.19
2022-12-27T11:54:00.415Z,97990.94
2022-12-27T11:55:22.497Z,97984.63
2022-12-27T11:56:27.028Z,97994.84
2022-12-27T11:57:28.881Z,97993.59
2022-12-27T11:58:39.831Z,97995.22
2022-12-27T12:00:06.305Z,97997.50
2022-12-27T12:01:27.957Z,97986.31
2022-12-27T12:02:40.245Z,97991.66
2022-12-27T12:03:47.904Z,97990.69
2022-12-27T12:04:55.520Z,97983.59
2022-12-27T12:05:57.423Z,97989.13
2022-12-27T12:07:22.567Z,97992.38
2022-12-27T12:08:32.949Z,97976.13
2022-12-27T12:09:45.596Z,97969.00
2022-12-27T12:10:55.806Z,97980.38
2022-12-27T12:11:57.604Z,97975.19
2022-12-27T12:13:06.270Z,97975.84
2022-12-27T12:14:10.643Z,97983.16
2022-12-27T12:15:23.493Z,97973.44
2022-12-27T12:16:25.392Z,97979.31
2022-12-27T12:17:45.618Z,97971.38
2022-12-27T12:18:50.479Z,97974.31
2022-12-27T12:19:58.807Z,97978.53
2022-12-27T12:21:25.005Z,97964.44
2022-12-27T12:22:45.525Z,97968.88
2022-12-27T12:24:07.061Z,97967.31
2022-12-27T12:25:27.581Z,97965.09
2022-12-27T12:26:38.588Z,97961.25
2022-12-27T12:28:09.740Z,97953.97
2022-12-27T12:29:25.515Z,97955.66
2022-12-27T12:30:38.062Z,97963.47
2022-12-27T12:31:46.062Z,97964.94
2022-12-27T12:32:47.931Z,97960.59
2022-12-27T12:34:02.009Z,97953.94
2022-12-27T12:35:12.283Z,97955.75
2022-12-27T12:36:20.164Z,97956.56
2022-12-27T12:37:22.079Z,97962.56
2022-12-27T12:38:32.680Z,97961.59
2022-12-27T12:39:34.537Z,97964.19
2022-12-27T12:40:39.139Z,97955.53
2022-12-27T12:41:51.542Z,97955.84
2022-12-27T12:43:01.931Z,97960.72
2022-12-27T12:44:10.755Z,97962.97
2022-12-27T12:45:27.865Z,97957.88
2022-12-27T12:46:40.523Z,97962.22
2022-12-27T12:47:45.415Z,97951.13
2022-12-27T12:48:54.676Z,97950.16
2022-12-27T12:50:15.476Z,97952.06
2022-12-27T12:51:26.912Z,97943.03
2022-12-27T12:52:28.666Z,97944.34
2022-12-27T12:53:49.159Z,97954.06
2022-12-27T12:55:09.633Z,97954.91
2022-12-27T12:56:17.369Z,97940.66
2022-12-27T12:57:28.572Z,97942.78
2022-12-27T12:58:31.284Z,97939.91
2022-12-27T12:59:51.627Z,97939.22
2022-12-27T13:01:23.042Z,97948.31
2022-12-27T13:02:34.893Z,97936.88
2022-12-27T13:03:55.646Z,97942.41
2022-12-27T13:05:03.332Z,97946.63
2022-12-27T13:06:08.300Z,97933.59
2022-12-27T13:07:40.753Z,97939.28
2022-12-27T13:09:02.737Z,97929.38
2022-12-27T13:10:10.605Z,97924.97
2022-12-27T13:11:12.422Z,97933.09